M I D A S
Marine Information and Data Acquisition System
Tripno 198 of the Zeeleeuw from 2002-01-16 04:26:10 to 2002-01-16 16:04:49
Back to CruiseResearch ActivitiesStationsMapUnderway DataData graphs

EquipmentUnitsComment
TimeDGPSUTC
LatitudeDGPSDM.mWGS84
LongitudeDGPSDM.mWGS84
HeadingGyrodeg 
SOGDGPSknotsSpeed over ground
COGDGPSdegCourse over ground
DepthEcho soundermeters200 kHz
Missing or incorrect values are displayed as -999
Navigation data collected by the RV Zeeleeuw from 2002-01-16 04:26:10 to 2002-01-16 16:04:49
                                                                                    Next 1000 lines
Time Latitude Longitude Heading SOG COG Depth
2002-01-16 04:26:17 51°13.689 2°55.905 131.5   26.8 8.7
2002-01-16 04:26:23 51°13.69 2°55.905 131.3   20.7 8.7
2002-01-16 04:26:27 51°13.69 2°55.905 131.2   19.4 8.7
2002-01-16 04:26:33 51°13.69 2°55.905 130.8   36.5 8.7
2002-01-16 04:26:37 51°13.69 2°55.905 130.3   65.8 8.7
2002-01-16 04:26:42 51°13.689 2°55.905 129.7   75 8.7
2002-01-16 04:26:47 51°13.689 2°55.905 128.7 0.1 73.4 8.6
2002-01-16 04:26:52 51°13.69 2°55.906 127.5 0.1 68.4 8.6
2002-01-16 04:26:57 51°13.689 2°55.906 126 0.1 125.9 8.6
2002-01-16 04:27:02 51°13.689 2°55.906 124.7   142 8.6
2002-01-16 04:27:07 51°13.689 2°55.906 124   241.4 8.7
2002-01-16 04:27:13 51°13.689 2°55.906 123.2 0.1 219.3 8.7
2002-01-16 04:27:17 51°13.688 2°55.906 122.2 0.1 197.9 8.7
2002-01-16 04:27:22 51°13.688 2°55.906 121.2 0.1 193.1 8.7
2002-01-16 04:27:27 51°13.688 2°55.906 120.3 0.1 198.4 8.7
2002-01-16 04:27:33 51°13.688 2°55.905 119.5 0.1 204.8 8.7
2002-01-16 04:27:37 51°13.688 2°55.905 118.5   216.3 8.7
2002-01-16 04:27:43 51°13.688 2°55.905 117.5   226.1 8.8
2002-01-16 04:27:47 51°13.688 2°55.905 116.7 0.1 214.9 8.8
2002-01-16 04:27:53 51°13.687 2°55.905 115.8 0.1 209.2 8.8
2002-01-16 04:27:57 51°13.687 2°55.905 115 0.1 214.8 8.8
2002-01-16 04:28:02 51°13.687 2°55.905 114.2 0.1 217.6 8.8
2002-01-16 04:28:07 51°13.687 2°55.905 113.3 0.1 206.7 8.9
2002-01-16 04:28:13 51°13.687 2°55.905 112.5 0.1 207.6 8.9
2002-01-16 04:28:18 51°13.687 2°55.905 111.7   224.3 8.9
2002-01-16 04:28:23 51°13.687 2°55.905 111   216.5 8.9
2002-01-16 04:28:27 51°13.687 2°55.905 110.2 0.1 203.7 9
2002-01-16 04:28:33 51°13.686 2°55.905 109.3 0.1 200.6 9
2002-01-16 04:28:38 51°13.686 2°55.905 108.7 0.1 202.4 9
2002-01-16 04:28:42 51°13.686 2°55.905 107.7 0.1 206.8 9.1
2002-01-16 04:28:47 51°13.686 2°55.905 106.8   204.1 9
2002-01-16 04:28:52 51°13.686 2°55.905 106   197.1 9.1
2002-01-16 04:28:57 51°13.686 2°55.905 105.2 0.1 200.9 9.1
2002-01-16 04:29:02 51°13.686 2°55.905 104.5 0.1 206 9.1
2002-01-16 04:29:07 51°13.686 2°55.905 103.5 0.1 223.1 9.1
2002-01-16 04:29:12 51°13.686 2°55.904 102.7   219.3 9.1
2002-01-16 04:29:17 51°13.686 2°55.904 101.8   211.6 9.2
2002-01-16 04:29:23 51°13.686 2°55.904 101 0.1 210.2 9.2
2002-01-16 04:29:27 51°13.686 2°55.904 100.2 0.1 220 9.2
2002-01-16 04:29:33 51°13.685 2°55.904 99.5 0.1 236.8 9.2
2002-01-16 04:29:37 51°13.685 2°55.904 98.7 0.1 231.5 9.3
2002-01-16 04:29:43 51°13.685 2°55.904 97.8 0.1 222.4 9.3
2002-01-16 04:29:47 51°13.685 2°55.904 97.2 0.1 234.9 9.3
2002-01-16 04:29:53 51°13.685 2°55.904 96.3 0.1 235.8 9.3
2002-01-16 04:29:57 51°13.685 2°55.904 95.7 0.1 232.3 9.3
2002-01-16 04:30:03 51°13.685 2°55.903 95.2 0.2 271.2 9.4
2002-01-16 04:30:07 51°13.685 2°55.902 94.7 0.4 279.1 9.5
2002-01-16 04:30:12 51°13.685 2°55.901 93.8 0.6 279.4 9.7
2002-01-16 04:30:18 51°13.685 2°55.897 93.2 1 276 9.6
2002-01-16 04:30:23 51°13.685 2°55.894 92.7 1.4 275.6 9.9
2002-01-16 04:30:27 51°13.686 2°55.89 91.8 2 274.4 -999
2002-01-16 04:30:34 51°13.686 2°55.881 90.8 2.5 273.2 -999
2002-01-16 04:30:38 51°13.686 2°55.876 89.7 2.9 272.1 -999
2002-01-16 04:30:43 51°13.686 2°55.868 88.7 3.4 270.4 -999
2002-01-16 04:30:48 51°13.686 2°55.86 87.7 3.7 269.6 -999
2002-01-16 04:30:53 51°13.685 2°55.851 86.8 3.7 268.3 -999
2002-01-16 04:30:58 51°13.685 2°55.843 86.2 3.6 267.2 -999
2002-01-16 04:31:03 51°13.684 2°55.836 85.5 3.4 266.5 -999
2002-01-16 04:31:08 51°13.684 2°55.828 84.8 3.4 265.7 -999
2002-01-16 04:31:14 51°13.683 2°55.819 84 3.5 264.3 -999
2002-01-16 04:31:18 51°13.683 2°55.812 83.3 3.7 263.5 11.5
2002-01-16 04:31:23 51°13.682 2°55.804 82.8 3.8 263 -999
2002-01-16 04:31:28 51°13.682 2°55.796 82.2 3.8 262.5 -999
2002-01-16 04:31:34 51°13.68 2°55.786 81.7 3.7 261.9 -999
2002-01-16 04:31:38 51°13.68 2°55.78 81.2 3.7 261.1 -999
2002-01-16 04:31:43 51°13.679 2°55.772 80.7 3.6 260.3 -999
2002-01-16 04:31:48 51°13.678 2°55.765 80.2 3.5 260 -999
2002-01-16 04:31:53 51°13.677 2°55.758 79.7 3.3 259.5 -999
2002-01-16 04:31:58 51°13.676 2°55.751 79.5 3.2 259 -999
2002-01-16 04:32:03 51°13.675 2°55.745 79.2 3 258.6 -999
2002-01-16 04:32:08 51°13.674 2°55.739 79 2.9 258.8 12.5
2002-01-16 04:32:11 51°13.674 2°55.736 78.8 2.4 260.1 12.4
2002-01-16 04:32:17 51°13.673 2°55.732 77.3 1.6 259.1 12.8
2002-01-16 04:32:23 51°13.673 2°55.731 73.2 0.7 271.4 13
2002-01-16 04:32:26 51°13.673 2°55.731 67.3 0.3 351.1 13.3
2002-01-16 04:32:33 51°13.676 2°55.734 60 0.9 38 13.6
2002-01-16 04:32:38 51°13.678 2°55.737 50.5 1.8 40.7 13.6
2002-01-16 04:32:43 51°13.681 2°55.74 40.5 2.6 32.9 13.6
2002-01-16 04:32:47 51°13.685 2°55.742 31 3.1 26.5 13.4
2002-01-16 04:32:53 51°13.691 2°55.745 22 3.7 16.6 13.6
2002-01-16 04:32:57 51°13.696 2°55.746 12.2 4 9.7 13.6
2002-01-16 04:33:03 51°13.703 2°55.745 3.5 4.4 1.6 13.6
2002-01-16 04:33:07 51°13.709 2°55.743 355.3 4.9 353.2 13.6
2002-01-16 04:33:13 51°13.718 2°55.74 349.3 5.3 348.3 13.3
2002-01-16 04:33:18 51°13.726 2°55.735 343.3 5.9 341.6 12.3
2002-01-16 04:33:22 51°13.733 2°55.73 337.8 6.4 336.7 11.9
2002-01-16 04:33:27 51°13.741 2°55.722 334.5 6.8 332.9 11.7
2002-01-16 04:33:33 51°13.752 2°55.713 333.3 7.1 331.1 11.5
2002-01-16 04:33:38 51°13.761 2°55.704 332.7 7.5 330.3 11.5
2002-01-16 04:33:43 51°13.77 2°55.695 331.2 7.8 329.1 11.5
2002-01-16 04:33:47 51°13.778 2°55.688 331.3 8.1 328.7 11.5
2002-01-16 04:33:53 51°13.79 2°55.676 331.8 8.4 328.9 11.6
2002-01-16 04:33:58 51°13.8 2°55.667 332.8 8.5 329.8 11.5
2002-01-16 04:34:03 51°13.811 2°55.658 334 8.7 330.4 11.5
2002-01-16 04:34:07 51°13.82 2°55.651 335.5 8.8 332 11.4
2002-01-16 04:34:12 51°13.831 2°55.641 335.7 8.9 332.5 11.4
2002-01-16 04:34:17 51°13.842 2°55.632 335.5 9.1 332.8 11.3
2002-01-16 04:34:22 51°13.853 2°55.623 336.3 9.2 333.1 11.2
2002-01-16 04:34:27 51°13.865 2°55.614 336.5 9.3 333.6 11.3
2002-01-16 04:34:32 51°13.876 2°55.605 336.2 9.3 333.6 11.2
2002-01-16 04:34:38 51°13.89 2°55.594 337 9.4 333.7 11.3
2002-01-16 04:34:43 51°13.902 2°55.585 337.7 9.5 334.3 11.3
2002-01-16 04:34:47 51°13.912 2°55.578 337 9.5 334.4 11.2
2002-01-16 04:34:52 51°13.924 2°55.568 336.8 9.6 334 11.3
2002-01-16 04:34:57 51°13.936 2°55.559 338 9.6 334.6 11.3
2002-01-16 04:35:02 51°13.948 2°55.551 337.7 9.6 334.7 11.3
2002-01-16 04:35:07 51°13.959 2°55.542 337.7 9.4 334.8 11.3
2002-01-16 04:35:12 51°13.971 2°55.533 337.8 9.1 335 11.3
2002-01-16 04:35:18 51°13.983 2°55.524 337.5 8.5 334.8 11.3
2002-01-16 04:35:22 51°13.991 2°55.518 337.3 8.2 334.6 11.3
2002-01-16 04:35:27 51°14 2°55.51 336.3 7.8 334.2 11.4
2002-01-16 04:35:33 51°14.011 2°55.502 336 7.5 333.6 11.4
2002-01-16 04:35:38 51°14.02 2°55.495 336.5 7.1 333.8 11.4
2002-01-16 04:35:43 51°14.028 2°55.488 337 7 334.1 11.4
2002-01-16 04:35:47 51°14.035 2°55.483 337.3 6.7 334.5 11.4
2002-01-16 04:35:53 51°14.044 2°55.476 337.7 6.4 334.9 11.4
2002-01-16 04:35:57 51°14.051 2°55.471 338 6.3 335.1 11.5
2002-01-16 04:36:03 51°14.06 2°55.464 338.2 6.1 335.2 11.5
2002-01-16 04:36:07 51°14.066 2°55.46 338.3 6 335.2 11.5
2002-01-16 04:36:13 51°14.074 2°55.454 338.7 5.9 335.5 11.5
2002-01-16 04:36:18 51°14.082 2°55.448 339 6 335.9 11.5
2002-01-16 04:36:23 51°14.091 2°55.442 338.7 6.4 336 11.5
2002-01-16 04:36:27 51°14.098 2°55.437 338.2 7 335.5 11.5
2002-01-16 04:36:33 51°14.11 2°55.428 337.7 7.6 335.1 11.5
2002-01-16 04:36:37 51°14.119 2°55.421 337.2 8.4 334.3 11.4
2002-01-16 04:36:42 51°14.131 2°55.412 337.2 9 334.2 11.4
2002-01-16 04:36:47 51°14.143 2°55.402 336.7 9.7 333.6 11.4
2002-01-16 04:36:52 51°14.156 2°55.392 336 10.1 333.1 11.4
2002-01-16 04:36:57 51°14.169 2°55.38 334 10.5 331.5 11.4
2002-01-16 04:37:02 51°14.181 2°55.368 331.8 10.8 329.6 11.5
2002-01-16 04:37:07 51°14.194 2°55.354 331 11.1 327.9 11.5
2002-01-16 04:37:12 51°14.207 2°55.34 329.3 11.3 326.5 11.5
2002-01-16 04:37:17 51°14.22 2°55.325 326.8 11.4 323.8 11.5
2002-01-16 04:37:23 51°14.234 2°55.305 323.2 11.5 321.5 11.5
2002-01-16 04:37:27 51°14.244 2°55.29 319.3 11.6 317.3 11.5
2002-01-16 04:37:33 51°14.257 2°55.268 318.5 11.7 315 11.5
2002-01-16 04:37:37 51°14.266 2°55.253 316.7 11.7 313.8 11.6
2002-01-16 04:37:43 51°14.278 2°55.229 313.5 11.8 311 11.6
2002-01-16 04:37:47 51°14.286 2°55.213 311.3 11.8 308.5 11.6
2002-01-16 04:37:53 51°14.298 2°55.187 310 11.8 307 11.7
2002-01-16 04:37:58 51°14.307 2°55.166 308 11.9 305 11.7
2002-01-16 04:38:03 51°14.316 2°55.143 305.7 11.9 303.3 11.7
2002-01-16 04:38:07 51°14.323 2°55.125 304.2 11.9 301.4 11.7
2002-01-16 04:38:13 51°14.333 2°55.098 304.2 12 301 11.7
2002-01-16 04:38:17 51°14.34 2°55.08 304.2 12 300.9 11.7
2002-01-16 04:38:22 51°14.348 2°55.057 303.8 12 300.5 11.4
2002-01-16 04:38:27 51°14.356 2°55.034 303.3 12 299.9 11.2
2002-01-16 04:38:32 51°14.364 2°55.01 302.8 12.1 299.6 11.2
2002-01-16 04:38:37 51°14.373 2°54.987 302.8 12.2 299.7 11.3
2002-01-16 04:38:43 51°14.383 2°54.958 304 12.4 300.5 11.4
2002-01-16 04:38:47 51°14.391 2°54.94 307 12.5 302.3 11.6
2002-01-16 04:38:51 51°14.399 2°54.922 308.7 12.6 304.1 11.7
2002-01-16 04:38:57 51°14.411 2°54.894 308.5 12.7 305.1 11.8
2002-01-16 04:39:03 51°14.424 2°54.867 309.8 12.7 306 11.7
2002-01-16 04:39:07 51°14.433 2°54.85 313.5 12.8 308.9 11.8
2002-01-16 04:39:13 51°14.448 2°54.825 316.8 12.8 312.9 11.7
2002-01-16 04:39:17 51°14.457 2°54.809 317.8 12.8 314 11.7
2002-01-16 04:39:23 51°14.472 2°54.785 318.5 12.8 314.9 11.7
2002-01-16 04:39:27 51°14.482 2°54.769 318 12.8 314.6 11.8
2002-01-16 04:39:33 51°14.497 2°54.744 317.7 12.8 314.4 11.7
2002-01-16 04:39:38 51°14.509 2°54.724 317.8 12.8 314.4 11.6
2002-01-16 04:39:43 51°14.521 2°54.704 317.2 12.8 314.1 11.5
2002-01-16 04:39:47 51°14.531 2°54.687 316.3 12.8 313.6 11.4
2002-01-16 04:39:53 51°14.546 2°54.663 315.8 12.8 313.1 11.4
2002-01-16 04:39:58 51°14.558 2°54.642 316 12.7 312.9 11.4
2002-01-16 04:40:03 51°14.57 2°54.622 316.3 12.7 313.3 11.4
2002-01-16 04:40:07 51°14.58 2°54.606 316.5 12.7 313.7 11.3
2002-01-16 04:40:13 51°14.595 2°54.582 318 12.7 314.9 11.2
2002-01-16 04:40:17 51°14.605 2°54.567 320.2 12.7 317 11.2
2002-01-16 04:40:23 51°14.622 2°54.546 322.3 12.7 319.2 11.1
2002-01-16 04:40:28 51°14.635 2°54.528 323.3 12.7 320.6 11.2
2002-01-16 04:40:33 51°14.649 2°54.512 324.7 12.6 322.3 11.2
2002-01-16 04:40:37 51°14.66 2°54.498 323.5 12.5 321.8 11.3
2002-01-16 04:40:42 51°14.673 2°54.48 320 12.4 320 11.3
2002-01-16 04:40:47 51°14.684 2°54.46 316.3 12.4 315.8 11.4
2002-01-16 04:40:52 51°14.696 2°54.441 314.5 12.3 314 11.4
2002-01-16 04:40:57 51°14.708 2°54.42 313.8 12.3 312.5 11.4
2002-01-16 04:41:02 51°14.719 2°54.4 314 12.3 312.4 11.4
2002-01-16 04:41:07 51°14.73 2°54.38 314.7 12.3 312.6 11.5
2002-01-16 04:41:13 51°14.744 2°54.356 314.3 12.3 313 11.5
2002-01-16 04:41:17 51°14.753 2°54.34 312.8 12.3 312.2 11.4
2002-01-16 04:41:23 51°14.767 2°54.317 314.5 12.3 312.5 11.3
2002-01-16 04:41:27 51°14.778 2°54.302 318.8 12.3 316.1 11.3
2002-01-16 04:41:33 51°14.794 2°54.283 323.5 12.3 321.7 11.3
2002-01-16 04:41:37 51°14.805 2°54.27 327.3 12.3 324.7 11.2
2002-01-16 04:41:43 51°14.822 2°54.253 328.8 12.3 326.6 11.1
2002-01-16 04:41:47 51°14.834 2°54.241 329.5 12.4 327.6 10.7
2002-01-16 04:41:53 51°14.852 2°54.224 330.3 12.4 328.2 11
2002-01-16 04:41:57 51°14.864 2°54.212 330.8 12.4 328.8 10.8
2002-01-16 04:42:03 51°14.881 2°54.195 331 12.4 329 10.7
2002-01-16 04:42:07 51°14.893 2°54.185 331.8 12.5 330 10.6
2002-01-16 04:42:14 51°14.915 2°54.166 332.2 12.5 330.6 10.5
2002-01-16 04:42:18 51°14.927 2°54.155 332.3 12.5 330.6 10.5
2002-01-16 04:42:23 51°14.942 2°54.141 332.2 12.5 330.2 10.4
2002-01-16 04:42:27 51°14.954 2°54.13 332.5 12.5 330.4 10.4
2002-01-16 04:42:33 51°14.972 2°54.114 332.7 12.6 330.3 10.4
2002-01-16 04:42:38 51°14.987 2°54.101 333.2 12.6 331 10.4
2002-01-16 04:42:43 51°15.002 2°54.087 332.8 12.6 330.7 10.4
2002-01-16 04:42:47 51°15.015 2°54.076 333.3 12.6 331.3 10.5
2002-01-16 04:42:53 51°15.033 2°54.06 333 12.6 331.4 10.5
2002-01-16 04:42:57 51°15.045 2°54.049 333.3 12.6 331.4 10.5
2002-01-16 04:43:03 51°15.064 2°54.033 332.8 12.7 331.2 10.7
2002-01-16 04:43:07 51°15.076 2°54.022 332.8 12.7 330.7 10.6
2002-01-16 04:43:13 51°15.094 2°54.005 332.5 12.7 329.9 10.7
2002-01-16 04:43:17 51°15.106 2°53.994 332.3 12.6 329.8 10.7
2002-01-16 04:43:23 51°15.125 2°53.977 331.8 12.6 329.4 10.7
2002-01-16 04:43:28 51°15.139 2°53.963 332.3 12.6 329.4 10.8
2002-01-16 04:43:33 51°15.155 2°53.949 332.5 12.6 330.2 10.8
2002-01-16 04:43:37 51°15.167 2°53.937 332.8 12.6 329.9 10.8
2002-01-16 04:43:43 51°15.185 2°53.92 332.7 12.6 330.4 10.8
2002-01-16 04:43:47 51°15.197 2°53.909 332.8 12.6 330 10.9
2002-01-16 04:43:52 51°15.212 2°53.896 333.2 12.6 330.6 10.9
2002-01-16 04:43:57 51°15.227 2°53.882 333.5 12.6 330.5 11
2002-01-16 04:44:03 51°15.246 2°53.866 333.3 12.6 331.2 11
2002-01-16 04:44:07 51°15.258 2°53.854 333.5 12.7 330.5 11.1
2002-01-16 04:44:12 51°15.273 2°53.841 333.3 12.8 331 11.2
2002-01-16 04:44:18 51°15.292 2°53.824 333.5 12.8 330.4 11.3
2002-01-16 04:44:23 51°15.307 2°53.81 333.2 12.9 331 11.2
2002-01-16 04:44:27 51°15.32 2°53.798 333.3 13 330.4 11.3
2002-01-16 04:44:33 51°15.339 2°53.781 332.8 13 329.8 11.4
2002-01-16 04:44:38 51°15.355 2°53.767 333.3 13.1 330.3 11.5
2002-01-16 04:44:43 51°15.37 2°53.752 332.7 13.1 330.4 11.5
2002-01-16 04:44:47 51°15.383 2°53.741 333.2 13.1 330.2 11.6
2002-01-16 04:44:53 51°15.401 2°53.722 332.2 13.1 329.1 11.6
2002-01-16 04:44:57 51°15.414 2°53.711 333 13.1 330.2 11.7
2002-01-16 04:45:03 51°15.433 2°53.693 332 13.1 329.3 11.8
2002-01-16 04:45:08 51°15.449 2°53.68 333 13.1 330.5 11.8
2002-01-16 04:45:13 51°15.464 2°53.664 331.8 13.1 329.1 11.8
2002-01-16 04:45:17 51°15.477 2°53.654 333.7 13.1 330.9 11.9
2002-01-16 04:45:22 51°15.493 2°53.639 333.3 13.2 330.3 12
2002-01-16 04:45:27 51°15.509 2°53.626 335.5 13.2 332.5 12.1
2002-01-16 04:45:32 51°15.525 2°53.612 334.5 13.1 332.1 12.1
2002-01-16 04:45:37 51°15.542 2°53.6 336.2 13.2 333.6 12.2
2002-01-16 04:45:43 51°15.561 2°53.583 334.8 13.3 332.5 12.3
2002-01-16 04:45:48 51°15.578 2°53.571 336.7 13.3 334.1 12.3
2002-01-16 04:45:53 51°15.595 2°53.556 335.7 13.5 333 12.4
2002-01-16 04:45:57 51°15.609 2°53.547 337 13.6 335 12.5
2002-01-16 04:46:03 51°15.629 2°53.531 336.2 13.6 334.6 12.6
2002-01-16 04:46:06 51°15.639 2°53.524 337.7 13.7 335.6 12.6
2002-01-16 04:46:13 51°15.663 2°53.505 336 13.7 334.1 12.6
2002-01-16 04:46:18 51°15.681 2°53.494 337.3 13.7 335.3 12.7
2002-01-16 04:46:23 51°15.698 2°53.479 335.3 13.7 333.9 12.7
2002-01-16 04:46:27 51°15.711 2°53.469 336.7 13.7 334.4 12.8
2002-01-16 04:46:33 51°15.732 2°53.452 335.3 13.7 333.1 12.7
2002-01-16 04:46:37 51°15.745 2°53.442 336.2 13.7 333.9 13
2002-01-16 04:46:43 51°15.766 2°53.425 335.3 13.7 333.6 13
2002-01-16 04:46:47 51°15.78 2°53.416 337 13.7 334.5 13
2002-01-16 04:46:53 51°15.8 2°53.399 335.7 13.7 333.3 13
2002-01-16 04:46:58 51°15.817 2°53.387 336.8 13.7 334.8 13
2002-01-16 04:47:03 51°15.834 2°53.373 335.7 13.7 333.9 13.1
2002-01-16 04:47:07 51°15.848 2°53.363 336.5 13.7 334.9 13.1
2002-01-16 04:47:13 51°15.869 2°53.346 335.2 13.8 334.6 13.2
2002-01-16 04:47:17 51°15.882 2°53.336 336.2 13.7 334.4 13.2
2002-01-16 04:47:23 51°15.903 2°53.32 335.2 13.7 333.7 13.3
2002-01-16 04:47:28 51°15.92 2°53.308 336 13.7 334.2 13.3
2002-01-16 04:47:33 51°15.937 2°53.293 335.3 13.7 333.2 13.3
2002-01-16 04:47:37 51°15.951 2°53.283 336.2 13.7 334.5 13.3
2002-01-16 04:47:42 51°15.968 2°53.27 335.3 13.8 334.4 13.3
2002-01-16 04:47:47 51°15.985 2°53.257 336.3 13.8 334.6 13.4
2002-01-16 04:47:53 51°16.006 2°53.24 335.3 13.8 333.4 13.4
2002-01-16 04:47:58 51°16.023 2°53.228 336 13.7 334.2 13.5
2002-01-16 04:48:03 51°16.04 2°53.214 335 13.7 333.2 13.5
2002-01-16 04:48:07 51°16.053 2°53.203 335.5 13.7 333.8 13.6
2002-01-16 04:48:13 51°16.074 2°53.187 335.2 13.7 334 13.6
2002-01-16 04:48:18 51°16.091 2°53.174 335.8 13.7 333.9 13.6
2002-01-16 04:48:23 51°16.108 2°53.16 335.8 13.8 334.2 13.6
2002-01-16 04:48:28 51°16.125 2°53.148 335.8 13.7 334.1 13.7
2002-01-16 04:48:33 51°16.142 2°53.134 335.7 13.7 334.7 13.7
2002-01-16 04:48:38 51°16.16 2°53.122 336.3 13.7 334.4 13.7
2002-01-16 04:48:42 51°16.174 2°53.111 336.2 13.8 335.1 13.7
2002-01-16 04:48:47 51°16.19 2°53.097 335.8 13.8 334.2 13.7
2002-01-16 04:48:53 51°16.211 2°53.082 336.2 13.8 335 13.8
2002-01-16 04:48:57 51°16.225 2°53.071 336.2 13.8 334.3 13.8
2002-01-16 04:49:03 51°16.246 2°53.055 336 13.8 335 13.8
2002-01-16 04:49:07 51°16.259 2°53.045 336.7 13.7 334.5 13.8
2002-01-16 04:49:13 51°16.28 2°53.029 336 13.8 334.1 13.8
2002-01-16 04:49:18 51°16.297 2°53.016 335.7 13.8 334 13.8
2002-01-16 04:49:23 51°16.315 2°53.003 335.8 13.8 334.4 13.8
2002-01-16 04:49:27 51°16.328 2°52.992 336.3 13.8 334.4 13.8
2002-01-16 04:49:33 51°16.349 2°52.977 336 13.8 335.4 13.8
2002-01-16 04:49:38 51°16.366 2°52.964 335.8 13.8 334.2 13.8
2002-01-16 04:49:43 51°16.383 2°52.951 335.8 13.8 335.3 13.8
2002-01-16 04:49:47 51°16.397 2°52.94 335.8 13.8 334.3 13.8
2002-01-16 04:49:53 51°16.418 2°52.925 336.3 13.8 335.5 13.8
2002-01-16 04:49:57 51°16.432 2°52.914 336 13.8 334.6 13.7
2002-01-16 04:50:03 51°16.453 2°52.9 336.8 13.8 336.2 13.7
2002-01-16 04:50:07 51°16.467 2°52.889 336.2 13.8 335 13.6
2002-01-16 04:50:13 51°16.488 2°52.874 337 13.9 335.5 13.5
2002-01-16 04:50:17 51°16.502 2°52.864 336.5 13.8 335.3 13.4
2002-01-16 04:50:23 51°16.523 2°52.85 337.2 13.8 336.5 13.3
2002-01-16 04:50:28 51°16.541 2°52.837 336.2 13.8 335.4 13.2
2002-01-16 04:50:33 51°16.558 2°52.825 337.2 13.8 336.8 13.1
2002-01-16 04:50:38 51°16.575 2°52.812 336.3 13.8 335.6 13
2002-01-16 04:50:43 51°16.593 2°52.8 337.2 13.8 337.2 12.9
2002-01-16 04:50:47 51°16.607 2°52.79 337 13.8 336 12.9
2002-01-16 04:50:53 51°16.629 2°52.776 337.3 13.8 337.5 12.7
2002-01-16 04:50:58 51°16.646 2°52.763 335.7 13.8 335.5 12.6
2002-01-16 04:51:03 51°16.663 2°52.752 337.3 13.8 337 12.5
2002-01-16 04:51:07 51°16.677 2°52.741 336.2 13.8 335.8 12.4
2002-01-16 04:51:13 51°16.698 2°52.728 337.8 13.7 337.3 12.2
2002-01-16 04:51:17 51°16.712 2°52.717 337 13.7 336.3 12
2002-01-16 04:51:23 51°16.734 2°52.705 338.5 13.8 338.2 11.6
2002-01-16 04:51:28 51°16.751 2°52.692 337.7 13.7 337 11.1
2002-01-16 04:51:33 51°16.769 2°52.682 339.2 13.8 338.6 11
2002-01-16 04:51:37 51°16.783 2°52.671 338.2 13.7 337.4 11.3
2002-01-16 04:51:42 51°16.801 2°52.662 339.7 13.7 339.3 11.4
2002-01-16 04:51:47 51°16.818 2°52.649 337.3 13.7 336.9 11.1
2002-01-16 04:51:53 51°16.84 2°52.637 339.2 13.8 338.6 10.9
2002-01-16 04:51:58 51°16.857 2°52.623 337.3 13.8 336.6 10.8
2002-01-16 04:52:03 51°16.875 2°52.614 339.2 13.8 338.2 10.8
2002-01-16 04:52:07 51°16.889 2°52.603 337.3 13.8 336.6 11.1
2002-01-16 04:52:13 51°16.91 2°52.59 339.2 13.8 337.2 11.3
2002-01-16 04:52:17 51°16.924 2°52.578 337.8 13.8 336.2 11.5
2002-01-16 04:52:23 51°16.945 2°52.565 338.5 13.8 336.6 11.6
2002-01-16 04:52:27 51°16.959 2°52.554 338.2 13.8 336.2 11.3
2002-01-16 04:52:33 51°16.98 2°52.54 338.2 13.8 335.8 11.1
2002-01-16 04:52:38 51°16.998 2°52.527 338.8 13.8 336.8 11
2002-01-16 04:52:43 51°17.015 2°52.515 339.3 13.8 336.1 10.9
2002-01-16 04:52:47 51°17.029 2°52.506 339.3 13.7 337 10.9
2002-01-16 04:52:53 51°17.05 2°52.492 339.5 13.7 336.3 10.9
2002-01-16 04:52:57 51°17.064 2°52.483 339.7 13.7 337.3 11
2002-01-16 04:53:03 51°17.085 2°52.468 339.3 13.8 336.4 11
2002-01-16 04:53:07 51°17.1 2°52.459 339.8 13.8 337.3 11.2
2002-01-16 04:53:13 51°17.121 2°52.445 340.3 13.8 338 11.2
2002-01-16 04:53:17 51°17.135 2°52.436 340.3 13.8 338.3 11.2
2002-01-16 04:53:23 51°17.156 2°52.422 340.3 13.8 337.7 11.2
2002-01-16 04:53:27 51°17.171 2°52.413 340.8 13.8 338.3 11.3
2002-01-16 04:53:33 51°17.191 2°52.398 339.8 13.8 337.3 11.4
2002-01-16 04:53:38 51°17.21 2°52.387 340.7 13.9 338.3 11.4
2002-01-16 04:53:43 51°17.227 2°52.375 340.3 13.9 337.3 11.5
2002-01-16 04:53:47 51°17.242 2°52.367 340.2 13.9 338.3 11.6
2002-01-16 04:53:53 51°17.263 2°52.352 340.3 13.8 337.1 11.6
2002-01-16 04:53:58 51°17.281 2°52.341 340.3 13.9 338.2 11.6
2002-01-16 04:54:03 51°17.299 2°52.329 339.8 13.9 337.7 11.7
2002-01-16 04:54:07 51°17.313 2°52.322 341.5 13.9 339.4 11.7
2002-01-16 04:54:13 51°17.335 2°52.308 341.2 13.9 338.4 11.7
2002-01-16 04:54:18 51°17.353 2°52.298 342.5 13.9 340.5 11.7
2002-01-16 04:54:23 51°17.371 2°52.287 341.5 13.8 339 11.7
2002-01-16 04:54:27 51°17.385 2°52.279 342.2 13.8 340.4 11.6
2002-01-16 04:54:32 51°17.403 2°52.266 340.7 13.8 338.3 11.7
2002-01-16 04:54:37 51°17.421 2°52.258 342.3 13.8 340 11.8
2002-01-16 04:54:43 51°17.442 2°52.244 341.2 13.8 338.7 11.8
2002-01-16 04:54:47 51°17.457 2°52.237 343.2 13.8 340.6 11.8
2002-01-16 04:54:51 51°17.471 2°52.227 342.5 13.8 339.6 11.8
2002-01-16 04:54:58 51°17.496 2°52.215 344 13.8 341.6 11.8
2002-01-16 04:55:03 51°17.514 2°52.204 343 13.8 340.8 11.9
2002-01-16 04:55:07 51°17.529 2°52.197 344.3 13.8 341.8 11.8
2002-01-16 04:55:13 51°17.551 2°52.184 343 13.8 340.4 11.8
2002-01-16 04:55:17 51°17.566 2°52.178 345.5 13.8 342.5 11.9
2002-01-16 04:55:23 51°17.587 2°52.166 345 13.8 341.8 11.8
2002-01-16 04:55:28 51°17.606 2°52.159 347.3 13.8 344.2 11.8
2002-01-16 04:55:33 51°17.624 2°52.149 347.3 13.8 344.3 11.8
2002-01-16 04:55:38 51°17.643 2°52.143 349.2 13.8 346.2 11.8
2002-01-16 04:55:42 51°17.658 2°52.137 349.5 13.8 345.8 11.7
2002-01-16 04:55:47 51°17.677 2°52.133 352.8 13.8 349 11.7
2002-01-16 04:55:53 51°17.699 2°52.123 350.3 13.9 347.7 11.8
2002-01-16 04:55:58 51°17.718 2°52.119 352.3 13.9 349.7 11.7
2002-01-16 04:56:03 51°17.737 2°52.111 350.7 13.9 348.2 11.7
2002-01-16 04:56:07 51°17.752 2°52.109 353.2 13.9 350.1 11.7
2002-01-16 04:56:13 51°17.775 2°52.1 351.5 14 348.9 11.7
2002-01-16 04:56:17 51°17.791 2°52.098 353.8 14 351 11.7
2002-01-16 04:56:23 51°17.813 2°52.09 352.2 14 349.6 11.7
2002-01-16 04:56:27 51°17.829 2°52.088 354.2 13.9 351.3 11.7
2002-01-16 04:56:33 51°17.852 2°52.08 353 14 350.3 11.7
2002-01-16 04:56:38 51°17.871 2°52.077 354.7 14 352 11.7
2002-01-16 04:56:43 51°17.89 2°52.071 353.5 14 351.2 11.7
2002-01-16 04:56:48 51°17.91 2°52.069 355.8 14 352.5 11.8
2002-01-16 04:56:53 51°17.929 2°52.063 354.2 14 351.6 11.8
2002-01-16 04:56:57 51°17.944 2°52.061 356.2 14.1 352.9 11.8
2002-01-16 04:57:03 51°17.968 2°52.055 355.8 14.1 352.5 11.8
2002-01-16 04:57:07 51°17.983 2°52.054 357.7 14.1 354.4 11.9
2002-01-16 04:57:13 51°18.006 2°52.05 357.5 14.1 354.3 11.9
2002-01-16 04:57:17 51°18.022 2°52.049 358.8 14.1 355.7 11.9
2002-01-16 04:57:23 51°18.046 2°52.046 359 14.1 356.1 11.9
2002-01-16 04:57:27 51°18.061 2°52.044 359.2 14.1 356.4 11.9
2002-01-16 04:57:33 51°18.085 2°52.043 1 14.1 357.6 12
2002-01-16 04:57:38 51°18.104 2°52.043 2.2 14.1 358.6 12
2002-01-16 04:57:43 51°18.124 2°52.044 3.8 14.1 0.4 8.7
2002-01-16 04:57:48 51°18.143 2°52.045 5.3 14.1 1.7 6.6
2002-01-16 04:57:53 51°18.163 2°52.05 9.8 14.1 6 -999
2002-01-16 04:57:58 51°18.182 2°52.056 15 14 9.8 -999
2002-01-16 04:58:03 51°18.2 2°52.066 19.8 14 15.7 5.6
2002-01-16 04:58:07 51°18.215 2°52.075 25.5 14 20.1 -999
2002-01-16 04:58:13 51°18.235 2°52.092 30.2 13.9 25.6 5.6
2002-01-16 04:58:18 51°18.252 2°52.108 34.8 13.9 29.4 -999
2002-01-16 04:58:23 51°18.267 2°52.126 40.2 13.8 34.8 -999
2002-01-16 04:58:28 51°18.282 2°52.146 44.3 13.8 38.5 -999
2002-01-16 04:58:33 51°18.296 2°52.166 46 13.9 40.8 12.5
2002-01-16 04:58:37 51°18.307 2°52.184 48 13.9 43.3 12.6
2002-01-16 04:58:43 51°18.323 2°52.21 48.7 13.9 45.3 12.6
2002-01-16 04:58:47 51°18.333 2°52.229 52.7 13.9 48.2 12.1
2002-01-16 04:58:53 51°18.347 2°52.259 57.5 13.9 51.5 12.2
2002-01-16 04:58:58 51°18.355 2°52.286 64.7 13.8 58.4 12.4
2002-01-16 04:59:03 51°18.363 2°52.313 70.3 13.7 62.2 12.4
2002-01-16 04:59:07 51°18.368 2°52.336 72.2 13.7 67.4 12.5
2002-01-16 04:59:13 51°18.376 2°52.37 74.5 13.7 68.6 12.6
2002-01-16 04:59:16 51°18.379 2°52.388 76.2 13.7 71.2 12.5
2002-01-16 04:59:23 51°18.388 2°52.428 76.8 13.7 71.4 12.5
2002-01-16 04:59:27 51°18.392 2°52.451 76.5 13.7 72.3 12.5
2002-01-16 04:59:33 51°18.4 2°52.485 76 13.7 71.4 12.6
2002-01-16 04:59:37 51°18.404 2°52.509 76.5 13.7 71.8 12.5
2002-01-16 04:59:43 51°18.412 2°52.543 75.8 13.7 71.6 12.5
2002-01-16 04:59:48 51°18.418 2°52.572 76.7 13.7 71.8 12.5
2002-01-16 04:59:52 51°18.423 2°52.595 76.2 13.8 71.8 12.5
2002-01-16 04:59:57 51°18.428 2°52.624 77.7 13.7 72.1 12.5
2002-01-16 05:00:03 51°18.436 2°52.659 75.8 13.7 72 12.4
2002-01-16 05:00:08 51°18.441 2°52.688 78 13.7 72.8 12.4
2002-01-16 05:00:13 51°18.447 2°52.717 76.8 13.7 73.1 12.4
2002-01-16 05:00:18 51°18.452 2°52.746 77.5 13.7 72.5 12.5
2002-01-16 05:00:23 51°18.458 2°52.775 77 13.7 73.1 12.5
2002-01-16 05:00:28 51°18.465 2°52.804 75.8 13.7 71.1 12.5
2002-01-16 05:00:33 51°18.47 2°52.833 76.5 13.7 72.7 12.5
2002-01-16 05:00:38 51°18.476 2°52.861 76.3 13.7 70.7 12.5
2002-01-16 05:00:43 51°18.482 2°52.89 75.3 13.7 72.1 12.4
2002-01-16 05:00:47 51°18.488 2°52.913 74.8 13.7 69.8 12.5
2002-01-16 05:00:53 51°18.495 2°52.947 75 13.7 71.4 12.5
2002-01-16 05:00:58 51°18.502 2°52.976 73.5 13.7 69.5 12.5
2002-01-16 05:01:03 51°18.508 2°53.004 74.8 13.7 70 12.5
2002-01-16 05:01:08 51°18.516 2°53.032 73.5 13.6 69.4 12.5
2002-01-16 05:01:13 51°18.521 2°53.061 74.8 13.6 69.6 12.6
2002-01-16 05:01:18 51°18.528 2°53.089 75.2 13.6 70.5 12.6
2002-01-16 05:01:23 51°18.535 2°53.118 73.2 13.7 69.5 12.6
2002-01-16 05:01:28 51°18.541 2°53.147 74.3 13.8 70.6 12.6
2002-01-16 05:01:33 51°18.548 2°53.175 73.8 13.8 68.9 12.6
2002-01-16 05:01:38 51°18.555 2°53.204 74.7 13.8 70.1 12.6
2002-01-16 05:01:43 51°18.56 2°53.233 75.3 13.7 70.9 12.6
2002-01-16 05:01:48 51°18.569 2°53.26 71.2 13.7 67.6 12.5
2002-01-16 05:01:53 51°18.575 2°53.289 72.8 13.7 68.1 12.5
2002-01-16 05:01:58 51°18.582 2°53.317 73 13.8 68.3 12.5
2002-01-16 05:02:03 51°18.589 2°53.346 74.3 13.8 68.8 12.6
2002-01-16 05:02:08 51°18.595 2°53.374 74.7 13.7 70.6 12.6
2002-01-16 05:02:13 51°18.602 2°53.403 74.2 13.6 69.8 12.6
2002-01-16 05:02:18 51°18.607 2°53.432 77.2 13.6 71.5 12.6
2002-01-16 05:02:23 51°18.614 2°53.459 75.3 13.6 71 12.6
2002-01-16 05:02:28 51°18.619 2°53.489 76.2 13.7 71.6 12.5
2002-01-16 05:02:33 51°18.627 2°53.517 75 13.7 70.2 12.6
2002-01-16 05:02:38 51°18.632 2°53.546 76.3 13.8 71.7 12.6
2002-01-16 05:02:43 51°18.639 2°53.574 75.2 13.7 69.7 12.6
2002-01-16 05:02:48 51°18.644 2°53.603 76.3 13.7 72 12.5
2002-01-16 05:02:53 51°18.652 2°53.631 74.3 13.6 69.2 12.6
2002-01-16 05:02:58 51°18.657 2°53.661 75.7 13.7 71.5 12.5
2002-01-16 05:03:03 51°18.664 2°53.689 74.3 13.9 69.4 12.5
2002-01-16 05:03:08 51°18.67 2°53.718 75 13.8 70.6 12.5
2002-01-16 05:03:13 51°18.677 2°53.747 74.8 13.8 69.7 12.6
2002-01-16 05:03:18 51°18.684 2°53.775 74.3 13.8 70.2 12.6
2002-01-16 05:03:23 51°18.69 2°53.804 74.7 13.7 69.4 12.5
2002-01-16 05:03:28 51°18.697 2°53.832 74.7 13.7 70.2 12.5
2002-01-16 05:03:33 51°18.702 2°53.861 76 13.7 70.8 12.5
2002-01-16 05:03:38 51°18.709 2°53.889 74.8 13.6 70.3 12.6
2002-01-16 05:03:43 51°18.715 2°53.918 74.8 13.7 71 12.5
2002-01-16 05:03:48 51°18.722 2°53.946 74.3 13.7 69.4 12.5
2002-01-16 05:03:53 51°18.727 2°53.975 75.7 13.7 71.5 12.5
2002-01-16 05:03:58 51°18.735 2°54.003 74.2 13.7 69.9 12.5
2002-01-16 05:04:03 51°18.741 2°54.032 74.8 13.6 70.2 12.5
2002-01-16 05:04:08 51°18.747 2°54.06 74.8 13.6 70.7 12.5
2002-01-16 05:04:13 51°18.753 2°54.089 75 13.6 69.7 12.5
2002-01-16 05:04:18 51°18.759 2°54.117 74.7 13.6 70.5 12.5
2002-01-16 05:04:23 51°18.765 2°54.146 76 13.6 70.4 12.5
2002-01-16 05:04:28 51°18.772 2°54.174 74.3 13.6 71.8 12.5
2002-01-16 05:04:33 51°18.777 2°54.203 75.2 13.6 70 12.5
2002-01-16 05:04:38 51°18.784 2°54.231 75.2 13.6 70.8 12.5
2002-01-16 05:04:43 51°18.789 2°54.26 76.2 13.6 71.1 12.5
2002-01-16 05:04:48 51°18.796 2°54.288 74.8 13.7 70.5 12.5
2002-01-16 05:04:53 51°18.803 2°54.317 74.2 13.8 70 12.5
2002-01-16 05:04:58 51°18.809 2°54.346 75.3 13.7 70.9 12.4
2002-01-16 05:05:03 51°18.815 2°54.375 75.2 13.7 70.3 12.5
2002-01-16 05:05:08 51°18.822 2°54.403 74.7 13.7 70.8 12.4
2002-01-16 05:05:13 51°18.828 2°54.432 75 13.7 70.2 12.4
2002-01-16 05:05:18 51°18.834 2°54.461 76 13.7 71.2 12.4
2002-01-16 05:05:23 51°18.842 2°54.489 71.7 13.8 68.8 12.4
2002-01-16 05:05:28 51°18.849 2°54.517 72.5 13.8 68.2 12.4
2002-01-16 05:05:33 51°18.855 2°54.546 73.7 13.8 67.9 12.4
2002-01-16 05:05:38 51°18.863 2°54.574 73 13.8 68.5 12.4
2002-01-16 05:05:43 51°18.869 2°54.604 74.8 13.9 69.6 12.4
2002-01-16 05:05:48 51°18.877 2°54.631 73.5 13.8 68.8 12.4
2002-01-16 05:05:53 51°18.882 2°54.661 75.5 13.7 70.6 12.5
2002-01-16 05:05:58 51°18.889 2°54.689 75.5 13.6 70.6 12.5
2002-01-16 05:06:03 51°18.895 2°54.717 75 13.7 71 12.5
2002-01-16 05:06:08 51°18.9 2°54.746 76.5 13.6 70.7 12.4
2002-01-16 05:06:13 51°18.907 2°54.774 74.8 13.6 70.8 12.4
2002-01-16 05:06:18 51°18.912 2°54.804 76 13.7 71.4 12.4
2002-01-16 05:06:23 51°18.92 2°54.832 74 13.7 69.7 12.4
2002-01-16 05:06:28 51°18.925 2°54.861 74.5 13.7 70.8 12.4
2002-01-16 05:06:33 51°18.933 2°54.889 74.5 13.7 69.6 12.4
2002-01-16 05:06:38 51°18.937 2°54.918 76 13.7 72.1 12.4
2002-01-16 05:06:43 51°18.944 2°54.946 76.3 13.6 70.7 12.4
2002-01-16 05:06:48 51°18.95 2°54.975 76 13.6 72.2 12.3
2002-01-16 05:06:53 51°18.956 2°55.004 75.3 13.8 70.7 12.3
2002-01-16 05:06:58 51°18.963 2°55.033 75.5 13.8 71.4 12.3
2002-01-16 05:07:03 51°18.968 2°55.062 76.2 13.7 71.2 12.3
2002-01-16 05:07:08 51°18.975 2°55.091 75.8 13.7 71.3 12.4
2002-01-16 05:07:13 51°18.981 2°55.119 74.3 13.7 70.1 12.3
2002-01-16 05:07:17 51°18.986 2°55.142 74.8 13.6 70.8 12.2
2002-01-16 05:07:23 51°18.995 2°55.175 73.2 13.6 68.7 12.2
2002-01-16 05:07:28 51°19 2°55.204 74.2 13.5 70.3 12.2
2002-01-16 05:07:33 51°19.008 2°55.232 74 13.6 69 12.1
2002-01-16 05:07:38 51°19.014 2°55.261 73.7 13.7 70 12.1
2002-01-16 05:07:43 51°19.02 2°55.29 75.2 13.8 70 12.2
2002-01-16 05:07:48 51°19.028 2°55.317 73 13.7 69 12.1
2002-01-16 05:07:53 51°19.034 2°55.346 73.2 13.6 68.7 12.2
2002-01-16 05:07:58 51°19.04 2°55.374 74.8 13.6 70 12.2
2002-01-16 05:08:03 51°19.047 2°55.402 73 13.6 68.8 12.2
2002-01-16 05:08:08 51°19.053 2°55.431 75.3 13.6 70.7 12.2
2002-01-16 05:08:13 51°19.059 2°55.46 75.2 13.6 71 12.3
2002-01-16 05:08:18 51°19.066 2°55.488 75.3 13.7 70.9 12.2
2002-01-16 05:08:23 51°19.072 2°55.517 75 13.7 71.4 12.2
2002-01-16 05:08:28 51°19.078 2°55.546 75.5 13.7 71.3 12.2
2002-01-16 05:08:33 51°19.083 2°55.575 76.7 13.6 72.6 12.1
2002-01-16 05:08:38 51°19.089 2°55.603 75.5 13.6 71.2 12.1
2002-01-16 05:08:43 51°19.095 2°55.631 75.5 13.6 72 12.2
2002-01-16 05:08:48 51°19.101 2°55.66 75.8 13.5 71.9 12.1
2002-01-16 05:08:53 51°19.107 2°55.688 75.7 13.5 72.7 12
2002-01-16 05:08:58 51°19.113 2°55.717 75.3 13.6 70.8 12
2002-01-16 05:09:03 51°19.119 2°55.745 76 13.6 72.1 12
2002-01-16 05:09:08 51°19.125 2°55.774 74.8 13.6 70.9 11.9
2002-01-16 05:09:13 51°19.132 2°55.802 75.2 13.6 70.9 11.9
2002-01-16 05:09:18 51°19.137 2°55.831 75.8 13.6 72.1 11.9
2002-01-16 05:09:23 51°19.143 2°55.859 75.7 13.5 70.9 11.9
2002-01-16 05:09:28 51°19.149 2°55.887 74.3 13.5 71.1 11.9
2002-01-16 05:09:33 51°19.156 2°55.916 74.8 13.5 70 11.9
2002-01-16 05:09:38 51°19.161 2°55.944 75.3 13.5 71.5 11.8
2002-01-16 05:09:43 51°19.168 2°55.973 74.7 13.5 70 11.9
2002-01-16 05:09:48 51°19.174 2°56.001 74.8 13.5 70.7 11.8
2002-01-16 05:09:53 51°19.18 2°56.029 75 13.5 69.9 11.8
2002-01-16 05:09:58 51°19.187 2°56.057 74.8 13.6 70.7 11.8
2002-01-16 05:10:03 51°19.193 2°56.086 74.5 13.6 70.1 11.8
2002-01-16 05:10:08 51°19.199 2°56.114 74.8 13.6 70.9 11.8
2002-01-16 05:10:13 51°19.205 2°56.143 75.2 13.6 70.3 11.8
2002-01-16 05:10:18 51°19.212 2°56.171 74.5 13.6 70.2 11.6
2002-01-16 05:10:23 51°19.217 2°56.199 75.2 13.6 70.3 11.7
2002-01-16 05:10:28 51°19.225 2°56.227 74 13.6 70 11.7
2002-01-16 05:10:33 51°19.229 2°56.257 77.2 13.6 71.9 11.7
2002-01-16 05:10:38 51°19.237 2°56.284 73.5 13.6 70.1 11.7
2002-01-16 05:10:43 51°19.241 2°56.313 75.5 13.5 71 11.7
2002-01-16 05:10:48 51°19.249 2°56.34 73 13.4 70.7 11.7
2002-01-16 05:10:53 51°19.255 2°56.369 73.8 13.5 69.3 11.7
2002-01-16 05:10:58 51°19.263 2°56.396 72.3 13.6 68.5 11.7
2002-01-16 05:11:03 51°19.268 2°56.425 73.7 13.6 69.1 11.7
2002-01-16 05:11:08 51°19.276 2°56.453 73.5 13.5 68.9 11.7
2002-01-16 05:11:13 51°19.281 2°56.481 74.3 13.6 70.5 11.6
2002-01-16 05:11:18 51°19.289 2°56.509 73.5 13.5 69.1 11.6
2002-01-16 05:11:23 51°19.294 2°56.537 75.3 13.5 70.7 11.6
2002-01-16 05:11:28 51°19.301 2°56.565 74 13.4 70.4 11.6
2002-01-16 05:11:33 51°19.308 2°56.593 73.2 13.4 69.9 11.6
2002-01-16 05:11:38 51°19.315 2°56.621 72.8 13.5 68.3 11.6
2002-01-16 05:11:43 51°19.323 2°56.648 71 13.5 67.7 11.6
2002-01-16 05:11:48 51°19.329 2°56.676 71.7 13.5 66.6 11.6
2002-01-16 05:11:53 51°19.338 2°56.703 70.2 13.5 66.1 11.6
2002-01-16 05:11:58 51°19.345 2°56.73 69.7 13.5 65.7 11.6
2002-01-16 05:12:03 51°19.353 2°56.757 70 13.5 65.5 11.5
2002-01-16 05:12:08 51°19.361 2°56.784 69.2 13.6 65.1 11.5
2002-01-16 05:12:13 51°19.368 2°56.812 70.2 13.5 66.1 11.5
2002-01-16 05:12:18 51°19.377 2°56.839 69 13.5 64.5 11.5
2002-01-16 05:12:23 51°19.384 2°56.867 69.5 13.6 65.1 11.6
2002-01-16 05:12:28 51°19.393 2°56.893 67.8 13.5 63.9 11.6
2002-01-16 05:12:33 51°19.4 2°56.921 69.7 13.5 65.2 11.5
2002-01-16 05:12:38 51°19.409 2°56.947 68 13.5 63.6 11.4
2002-01-16 05:12:43 51°19.416 2°56.975 69.3 13.6 64.9 11.4
2002-01-16 05:12:48 51°19.425 2°57.002 68.7 13.6 64.1 11.5
2002-01-16 05:12:53 51°19.432 2°57.029 69.7 13.5 65.5 11.5
2002-01-16 05:12:58 51°19.44 2°57.056 69.7 13.5 65.3 11.4
2002-01-16 05:13:03 51°19.448 2°57.084 69.8 13.5 66.1 11.4
2002-01-16 05:13:08 51°19.455 2°57.111 70.5 13.5 66.3 11.4
2002-01-16 05:13:13 51°19.464 2°57.138 68.8 13.5 66 11.4
2002-01-16 05:13:17 51°19.47 2°57.159 69.3 13.4 65 11.4
2002-01-16 05:13:23 51°19.48 2°57.192 69 13.4 64.8 11.3
2002-01-16 05:13:28 51°19.487 2°57.219 69 13.5 64.7 11.3
2002-01-16 05:13:33 51°19.495 2°57.246 69.2 13.5 65.5 11.4
2002-01-16 05:13:38 51°19.503 2°57.273 69.8 13.5 65 11.3
2002-01-16 05:13:43 51°19.511 2°57.3 69 13.5 65.5 11.3
2002-01-16 05:13:48 51°19.518 2°57.328 69.5 13.5 65.1 11.4
2002-01-16 05:13:53 51°19.527 2°57.354 69.3 13.5 65.4 11.3
2002-01-16 05:13:58 51°19.535 2°57.381 68.8 13.5 64.6 11.3
2002-01-16 05:14:03 51°19.542 2°57.409 70.3 13.5 65.5 11.3
2002-01-16 05:14:08 51°19.55 2°57.436 69 13.5 65 11.2
2002-01-16 05:14:13 51°19.558 2°57.463 70 13.5 65.9 11.2
2002-01-16 05:14:18 51°19.566 2°57.49 70.5 13.5 65.8 11.2
2002-01-16 05:14:23 51°19.572 2°57.518 71.7 13.5 67.2 11.2
2002-01-16 05:14:28 51°19.58 2°57.545 70.7 13.5 66.2 11.2
2002-01-16 05:14:33 51°19.586 2°57.573 72.8 13.4 68.6 11.2
2002-01-16 05:14:37 51°19.594 2°57.594 70.2 13.4 66 11.2
2002-01-16 05:14:43 51°19.601 2°57.629 72.3 13.5 68.4 11.3
2002-01-16 05:14:48 51°19.61 2°57.655 69.2 13.4 65.2 11.2
2002-01-16 05:14:53 51°19.616 2°57.683 71.7 13.4 67.8 11.2
2002-01-16 05:14:58 51°19.625 2°57.709 68.8 13.5 64.3 11.2
2002-01-16 05:15:03 51°19.632 2°57.736 69.5 13.5 65.9 11.2
2002-01-16 05:15:07 51°19.639 2°57.758 69.7 13.5 65.2 11.2
2002-01-16 05:15:13 51°19.648 2°57.791 70.2 13.5 65.4 11.2
2002-01-16 05:15:18 51°19.657 2°57.818 67.7 13.6 64.4 11.2
2002-01-16 05:15:23 51°19.664 2°57.845 69.5 13.5 64 11.2
2002-01-16 05:15:28 51°19.673 2°57.872 68.3 13.5 65.6 11.3
2002-01-16 05:15:33 51°19.68 2°57.9 69.7 13.5 64.3 11.2
2002-01-16 05:15:38 51°19.689 2°57.926 67.8 13.6 64.2 11.2
2002-01-16 05:15:43 51°19.696 2°57.954 69.5 13.6 64.1 11.2
2002-01-16 05:15:48 51°19.705 2°57.98 68.8 13.5 64.6 11.2
2002-01-16 05:15:53 51°19.712 2°58.008 69.2 13.5 64.7 11.2
2002-01-16 05:15:58 51°19.72 2°58.035 70.7 13.6 66 11.2
2002-01-16 05:16:03 51°19.726 2°58.064 73 13.6 67.7 11.2
2002-01-16 05:16:08 51°19.733 2°58.092 74.3 13.5 69.7 11.2
2002-01-16 05:16:13 51°19.739 2°58.12 75.2 13.5 70.2 11.2
2002-01-16 05:16:18 51°19.745 2°58.149 75 13.6 71.1 11.2
2002-01-16 05:16:23 51°19.749 2°58.178 77.2 13.6 73 11.2
2002-01-16 05:16:28 51°19.756 2°58.206 77 13.5 72.6 11.1
2002-01-16 05:16:33 51°19.76 2°58.236 79 13.6 74.5 11.1
2002-01-16 05:16:38 51°19.767 2°58.263 75.8 13.6 73.3 11.1
2002-01-16 05:16:43 51°19.772 2°58.292 76 13.6 73.5 11
2002-01-16 05:16:48 51°19.778 2°58.32 76 13.5 71.6 11
2002-01-16 05:16:53 51°19.784 2°58.349 75.2 13.5 72.4 11
2002-01-16 05:16:58 51°19.79 2°58.377 74.5 13.5 70.5 11
2002-01-16 05:17:03 51°19.797 2°58.405 73.5 13.5 70 11
2002-01-16 05:17:08 51°19.804 2°58.433 73.3 13.4 69.2 11
2002-01-16 05:17:13 51°19.812 2°58.46 71.7 13.5 68.3 11
2002-01-16 05:17:18 51°19.817 2°58.489 73.5 13.5 69.5 11
2002-01-16 05:17:23 51°19.825 2°58.516 72 13.4 68.3 11
2002-01-16 05:17:28 51°19.831 2°58.544 72.2 13.4 68.7 11
2002-01-16 05:17:33 51°19.839 2°58.571 71.3 13.4 67.3 11
2002-01-16 05:17:38 51°19.845 2°58.599 71.7 13.4 68.2 11.1
2002-01-16 05:17:43 51°19.854 2°58.626 70 13.5 66 11
2002-01-16 05:17:48 51°19.86 2°58.654 70.8 13.6 67.1 10.8
2002-01-16 05:17:53 51°19.869 2°58.681 70.3 13.6 65.5 11
2002-01-16 05:17:58 51°19.875 2°58.709 71.5 13.6 67.8 10.9
2002-01-16 05:18:03 51°19.883 2°58.737 71.2 13.6 66.5 10.9
2002-01-16 05:18:08 51°19.89 2°58.765 71.3 13.6 68 10.9
2002-01-16 05:18:13 51°19.896 2°58.793 72.2 13.6 67.3 10.9
2002-01-16 05:18:18 51°19.904 2°58.821 72.5 13.5 68.2 10.9
2002-01-16 05:18:23 51°19.911 2°58.849 71.7 13.6 68.4 10.9
2002-01-16 05:18:28 51°19.918 2°58.877 71.5 13.6 67.7 10.9
2002-01-16 05:18:33 51°19.925 2°58.904 71.7 13.6 67.5 10.9
2002-01-16 05:18:38 51°19.932 2°58.932 71.7 13.5 68.1 10.8
2002-01-16 05:18:43 51°19.939 2°58.961 72.3 13.6 68.2 10.8
2002-01-16 05:18:48 51°19.946 2°58.989 72 13.6 68.3 10.9
2002-01-16 05:18:53 51°19.952 2°59.017 72.7 13.6 68.5 10.9
2002-01-16 05:18:58 51°19.96 2°59.044 72.2 13.5 69.3 10.8
2002-01-16 05:19:03 51°19.966 2°59.073 73.2 13.5 68.9 10.8
2002-01-16 05:19:08 51°19.974 2°59.1 71.3 13.6 67.7 10.8
2002-01-16 05:19:13 51°19.98 2°59.129 72 13.7 68.1 10.9
2002-01-16 05:19:18 51°19.988 2°59.156 71 13.6 67.1 10.8
2002-01-16 05:19:23 51°19.995 2°59.185 71.7 13.6 68.1 10.8
2002-01-16 05:19:28 51°20.003 2°59.212 71.5 13.6 67.3 10.8
2002-01-16 05:19:33 51°20.009 2°59.24 71.7 13.6 68.6 10.9
2002-01-16 05:19:38 51°20.016 2°59.268 72.2 13.6 68 10.8
2002-01-16 05:19:43 51°20.024 2°59.296 71.5 13.6 67.9 10.7
2002-01-16 05:19:48 51°20.03 2°59.324 72.3 13.6 68.7 10.7
2002-01-16 05:19:53 51°20.038 2°59.352 72.2 13.6 67.9 10.7
2002-01-16 05:19:58 51°20.045 2°59.38 72.5 13.6 69 10.7
2002-01-16 05:20:03 51°20.052 2°59.408 71.5 13.6 68.1 10.8
2002-01-16 05:20:08 51°20.059 2°59.436 72 13.6 67.8 10.6
2002-01-16 05:20:13 51°20.066 2°59.463 71 13.5 67.8 10.7
2002-01-16 05:20:18 51°20.072 2°59.492 72.5 13.6 69.3 10.8
2002-01-16 05:20:23 51°20.081 2°59.519 71 13.6 67.2 10.7
2002-01-16 05:20:28 51°20.086 2°59.548 72.2 13.6 69.2 10.8
2002-01-16 05:20:33 51°20.095 2°59.575 71.5 13.5 66.9 10.8
2002-01-16 05:20:38 51°20.101 2°59.603 71.5 13.5 68.5 10.8
2002-01-16 05:20:43 51°20.108 2°59.631 72 13.5 67.4 10.8
2002-01-16 05:20:48 51°20.116 2°59.658 70.5 13.5 67.4 10.8
2002-01-16 05:20:53 51°20.122 2°59.686 71.2 13.5 67.2 10.8
2002-01-16 05:20:58 51°20.13 2°59.714 70.3 13.5 67.3 10.7
2002-01-16 05:21:03 51°20.136 2°59.742 71.7 13.5 67.3 10.7
2002-01-16 05:21:08 51°20.145 2°59.769 70.2 13.5 66.7 10.7
2002-01-16 05:21:13 51°20.151 2°59.797 71.2 13.6 67.3 10.7
2002-01-16 05:21:18 51°20.159 2°59.825 71 13.5 67 10.7
2002-01-16 05:21:23 51°20.166 2°59.853 72 13.5 68 10.7
2002-01-16 05:21:28 51°20.172 2°59.881 72.7 13.6 69.2 10.7
2002-01-16 05:21:33 51°20.179 2°59.909 72 13.6 68.2 10.7
2002-01-16 05:21:38 51°20.186 2°59.937 73.2 13.6 69.5 10.6
2002-01-16 05:21:43 51°20.193 2°59.965 72 13.6 68 10.7
2002-01-16 05:21:48 51°20.199 2°59.993 72.5 13.6 69.4 10.7
2002-01-16 05:21:53 51°20.207 3°0.021 72.2 13.6 67.8 10.7
2002-01-16 05:21:58 51°20.213 3°0.049 72.8 13.6 69.4 10.6
2002-01-16 05:22:03 51°20.219 3°0.077 72.8 13.5 68.7 10.7
2002-01-16 05:22:08 51°20.227 3°0.105 71.5 13.5 68.2 10.5
2002-01-16 05:22:13 51°20.233 3°0.134 73 13.6 69.3 10.5
2002-01-16 05:22:18 51°20.241 3°0.161 72 13.7 68.1 10.6
2002-01-16 05:22:23 51°20.247 3°0.19 72.8 13.6 68.9 10.6
2002-01-16 05:22:28 51°20.254 3°0.217 72.5 13.5 68.7 10.7
2002-01-16 05:22:33 51°20.261 3°0.245 71.8 13.5 67.8 10.6
2002-01-16 05:22:38 51°20.269 3°0.273 70.5 13.5 67.3 10.6
2002-01-16 05:22:43 51°20.276 3°0.301 70.8 13.6 67.2 10.7
2002-01-16 05:22:48 51°20.283 3°0.329 71.5 13.6 68 10.7
2002-01-16 05:22:53 51°20.29 3°0.357 71.7 13.5 68.4 10.7
2002-01-16 05:22:58 51°20.297 3°0.384 72 13.5 68.1 10.7
2002-01-16 05:23:03 51°20.303 3°0.412 72.7 13.5 69.1 10.7
2002-01-16 05:23:08 51°20.31 3°0.44 72.5 13.5 68.4 10.7
2002-01-16 05:23:13 51°20.317 3°0.468 72.5 13.5 69.5 10.7
2002-01-16 05:23:17 51°20.322 3°0.49 73.5 13.5 69.1 10.7
2002-01-16 05:23:23 51°20.331 3°0.523 71.3 13.5 68.8 10.7
2002-01-16 05:23:28 51°20.337 3°0.552 72.3 13.5 68.6 10.7
2002-01-16 05:23:33 51°20.345 3°0.579 72 13.4 68 10.7
2002-01-16 05:23:37 51°20.35 3°0.601 71.8 13.4 68.3 10.6
2002-01-16 05:23:43 51°20.359 3°0.634 72 13.5 68.3 10.4
2002-01-16 05:23:48 51°20.366 3°0.662 71.3 13.5 67.9 10.6
2002-01-16 05:23:53 51°20.373 3°0.69 71.7 13.5 68.3 10.6
2002-01-16 05:23:58 51°20.381 3°0.717 69.8 13.5 66 10.6
2002-01-16 05:24:03 51°20.387 3°0.745 71.8 13.4 68 10.6
2002-01-16 05:24:08 51°20.395 3°0.772 71.2 13.4 67.2 10.6
2002-01-16 05:24:13 51°20.401 3°0.801 72.7 13.5 68.6 10.6
2002-01-16 05:24:18 51°20.409 3°0.828 71.3 13.6 67.3 10.7
2002-01-16 05:24:23 51°20.415 3°0.856 72.2 13.6 68.1 10.7
2002-01-16 05:24:28 51°20.424 3°0.883 70.7 13.5 66.8 10.6
2002-01-16 05:24:33 51°20.429 3°0.912 73 13.5 68.9 10.6
2002-01-16 05:24:38 51°20.438 3°0.939 70.7 13.7 66.3 10.6
2002-01-16 05:24:43 51°20.445 3°0.968 71.7 13.7 67.3 10.6
2002-01-16 05:24:48 51°20.453 3°0.995 71.2 13.7 66.1 10.7
2002-01-16 05:24:53 51°20.46 3°1.024 72.7 13.8 67.5 10.7
2002-01-16 05:24:58 51°20.469 3°1.051 70.3 13.9 65.3 10.7
2002-01-16 05:25:03 51°20.475 3°1.08 72.8 13.9 67.4 10.7
2002-01-16 05:25:08 51°20.484 3°1.108 70.3 13.9 65.4 10.8
2002-01-16 05:25:13 51°20.491 3°1.137 71.5 13.9 67.1 10.7
2002-01-16 05:25:18 51°20.499 3°1.165 71.8 13.9 66.3 10.7
2002-01-16 05:25:23 51°20.506 3°1.193 73.2 13.9 68.2 10.7
2002-01-16 05:25:28 51°20.514 3°1.221 72 13.9 67.4 10.8
2002-01-16 05:25:33 51°20.52 3°1.251 73.8 13.8 69.2 10.8
2002-01-16 05:25:38 51°20.528 3°1.278 71.5 13.8 67 10.7
2002-01-16 05:25:43 51°20.534 3°1.307 73.8 13.7 69.2 10.7
2002-01-16 05:25:47 51°20.541 3°1.328 72 13.7 67.5 10.6
2002-01-16 05:25:53 51°20.549 3°1.363 72.2 13.7 67.9 10.6
2002-01-16 05:25:58 51°20.556 3°1.39 71.8 13.7 67 10.6
2002-01-16 05:26:03 51°20.563 3°1.419 72 13.6 67.7 10.6
2002-01-16 05:26:08 51°20.571 3°1.446 70.7 13.6 66.7 10.6
2002-01-16 05:26:13 51°20.578 3°1.474 71.8 13.6 67.8 10.5
2002-01-16 05:26:18 51°20.586 3°1.501 71.3 13.5 67.1 10.6
2002-01-16 05:26:23 51°20.593 3°1.529 71.7 13.5 67.8 10.6
2002-01-16 05:26:27 51°20.599 3°1.551 71 13.6 66.9 10.6
2002-01-16 05:26:33 51°20.607 3°1.585 72.3 13.5 68.1 10.7
2002-01-16 05:26:36 51°20.613 3°1.601 71.2 13.5 66.3 10.6
2002-01-16 05:26:43 51°20.622 3°1.64 71.7 13.5 67.8 10.6
2002-01-16 05:26:47 51°20.628 3°1.662 72.5 13.5 68.4 10.5
2002-01-16 05:26:53 51°20.637 3°1.695 71.5 13.5 67.7 10.5
2002-01-16 05:26:58 51°20.644 3°1.723 72 13.5 67.2 10.6
2002-01-16 05:27:03 51°20.651 3°1.75 72.7 13.4 67.7 10.7
2002-01-16 05:27:08 51°20.658 3°1.777 71.5 13.4 67.5 10.6
2002-01-16 05:27:13 51°20.666 3°1.804 70.5 13.4 65.8 10.6
2002-01-16 05:27:18 51°20.674 3°1.831 68.2 13.5 63.8 10.7
2002-01-16 05:27:23 51°20.684 3°1.857 65.5 13.4 61.4 10.7
2002-01-16 05:27:28 51°20.694 3°1.882 62.5 13.4 58.4 10.7
2002-01-16 05:27:33 51°20.704 3°1.907 61.2 13.5 57.1 10.7
2002-01-16 05:27:38 51°20.715 3°1.931 59.5 13.5 55.3 10.7
2002-01-16 05:27:43 51°20.726 3°1.955 58.2 13.5 53.9 10.7
2002-01-16 05:27:48 51°20.738 3°1.979 57.5 13.6 53.2 10.7
2002-01-16 05:27:53 51°20.75 3°2.003 56.7 13.6 52.1 10.7
2002-01-16 05:27:58 51°20.761 3°2.026 56 13.5 51.5 10.7
2002-01-16 05:28:03 51°20.773 3°2.05 56.3 13.5 51.8 10.8
2002-01-16 05:28:07 51°20.782 3°2.069 56.2 13.5 51.6 10.8
2002-01-16 05:28:13 51°20.795 3°2.098 57.8 13.5 53.1 10.9
2002-01-16 05:28:17 51°20.805 3°2.117 57.3 13.5 53 10.9
2002-01-16 05:28:23 51°20.817 3°2.146 58 13.5 54.1 11
2002-01-16 05:28:28 51°20.829 3°2.17 58.7 13.5 53.9 10.9
2002-01-16 05:28:33 51°20.839 3°2.195 59.5 13.5 55.4 11
2002-01-16 05:28:38 51°20.85 3°2.22 59.7 13.5 55.3 11
2002-01-16 05:28:43 51°20.86 3°2.244 59.7 13.5 56 10.9
2002-01-16 05:28:48 51°20.871 3°2.269 59.5 13.5 55.7 10.9
2002-01-16 05:28:53 51°20.881 3°2.294 59.8 13.5 55.8 11
2002-01-16 05:28:58 51°20.892 3°2.318 59.2 13.5 55.1 11
2002-01-16 05:29:03 51°20.902 3°2.344 60.2 13.5 56 11.1
2002-01-16 05:29:08 51°20.914 3°2.367 59 13.5 54.6 11.1
2002-01-16 05:29:13 51°20.923 3°2.393 60.8 13.5 56.3 11.1
2002-01-16 05:29:18 51°20.935 3°2.417 58.8 13.5 54.4 11
2002-01-16 05:29:23 51°20.945 3°2.443 60.5 13.5 56.2 11
2002-01-16 05:29:28 51°20.956 3°2.466 59.3 13.5 54.9 11
2002-01-16 05:29:33 51°20.966 3°2.491 60 13.4 55.5 11.1
2002-01-16 05:29:38 51°20.978 3°2.515 58.8 13.4 54.5 11
2002-01-16 05:29:43 51°20.987 3°2.541 61 13.4 56.9 11
2002-01-16 05:29:48 51°20.999 3°2.564 57.5 13.4 54.7 11
2002-01-16 05:29:53 51°21.008 3°2.59 61 13.4 56.7 11
2002-01-16 05:29:58 51°21.02 3°2.613 57.7 13.3 54.2 11.1
2002-01-16 05:30:03 51°21.029 3°2.638 60.3 13.3 56 11.1
2002-01-16 05:30:08 51°21.041 3°2.661 57.7 13.3 53.9 11.1
2002-01-16 05:30:13 51°21.051 3°2.686 59.3 13.2 55.4 11.2
2002-01-16 05:30:18 51°21.062 3°2.709 59.2 13.2 55.2 11.2
2002-01-16 05:30:23 51°21.071 3°2.734 59.8 13.2 56.5 11.1
2002-01-16 05:30:28 51°21.082 3°2.758 58.5 13.2 55.6 11.2
2002-01-16 05:30:33 51°21.092 3°2.782 60.5 13.2 56.6 11.2
2002-01-16 05:30:38 51°21.102 3°2.807 60.2 13.2 56.2 11.3
2002-01-16 05:30:43 51°21.112 3°2.832 61.8 13.3 57.5 11.3
2002-01-16 05:30:48 51°21.123 3°2.856 60.3 13.3 56.2 11.4
2002-01-16 05:30:53 51°21.132 3°2.882 61.7 13.3 57.8 11.4
2002-01-16 05:30:58 51°21.143 3°2.905 59.5 13.2 55.5 11.3
2002-01-16 05:31:03 51°21.152 3°2.931 60.7 13.2 57.1 11.3
2002-01-16 05:31:08 51°21.165 3°2.953 56.7 13.2 52.9 11.3
2002-01-16 05:31:13 51°21.175 3°2.977 58.5 13.2 54.2 11.3
2002-01-16 05:31:18 51°21.187 3°2.999 55 13.2 51.1 11.3
2002-01-16 05:31:23 51°21.198 3°3.023 55 13.2 51.5 11.3
2002-01-16 05:31:28 51°21.21 3°3.044 54 13.2 49.7 11.3
2002-01-16 05:31:33 51°21.222 3°3.067 54.2 13.2 50.3 11.3
2002-01-16 05:31:38 51°21.235 3°3.088 52.2 13.2 48.4 11.3
2002-01-16 05:31:43 51°21.246 3°3.112 54.5 13.2 50.3 11.4
2002-01-16 05:31:48 51°21.259 3°3.132 51.7 13.2 48 11.4
2002-01-16 05:31:53 51°21.27 3°3.156 54.2 13.1 49.8 11.4
2002-01-16 05:31:57 51°21.28 3°3.172 53 13.1 48.3 11.4
2002-01-16 05:32:03 51°21.293 3°3.2 54.8 13.1 50.5 11.4
2002-01-16 05:32:08 51°21.306 3°3.221 53.7 13.1 49.7 11.5
2002-01-16 05:32:13 51°21.317 3°3.244 53.8 13.2 50.4 11.4
2002-01-16 05:32:18 51°21.33 3°3.266 53.3 13.1 48.8 11.4
2002-01-16 05:32:23 51°21.341 3°3.288 54.2 13.1 50.1 11.5
2002-01-16 05:32:28 51°21.353 3°3.31 53.8 13.1 49.8 11.6
2002-01-16 05:32:33 51°21.364 3°3.333 54.8 13.1 50.6 11.6
2002-01-16 05:32:38 51°21.376 3°3.355 53.2 13.2 49.9 11.6
2002-01-16 05:32:43 51°21.388 3°3.377 54.5 13.1 50.7 11.6
2002-01-16 05:32:48 51°21.399 3°3.399 54 13.1 49.6 11.7
2002-01-16 05:32:53 51°21.411 3°3.423 56 13.1 51.3 11.7
2002-01-16 05:32:58 51°21.423 3°3.444 53.7 13.1 50 11.7
2002-01-16 05:33:03 51°21.434 3°3.467 54.7 13.2 50.8 11.7
2002-01-16 05:33:08 51°21.446 3°3.49 54.8 13.2 50.8 11.7
2002-01-16 05:33:13 51°21.457 3°3.513 55.8 13.1 51.7 11.8
2002-01-16 05:33:18 51°21.468 3°3.535 55.5 13.1 51.2 11.7
2002-01-16 05:33:23 51°21.48 3°3.558 55.3 13.2 51.5 11.8
2002-01-16 05:33:28 51°21.491 3°3.582 56.8 13.2 52.1 11.7
2002-01-16 05:33:33 51°21.502 3°3.605 57.5 13.1 53.2 11.7
2002-01-16 05:33:38 51°21.512 3°3.629 58.3 13.1 54.5 11.7
2002-01-16 05:33:43 51°21.523 3°3.653 59.3 13.1 54.6 11.8
2002-01-16 05:33:48 51°21.532 3°3.678 61.2 13.1 56.7 11.8
2002-01-16 05:33:53 51°21.543 3°3.701 59 13.2 55 11.8
2002-01-16 05:33:58 51°21.553 3°3.726 61.2 13.2 56.7 11.8
2002-01-16 05:34:03 51°21.564 3°3.75 59.5 13.2 55.5 11.8
2002-01-16 05:34:08 51°21.573 3°3.775 60.8 13.2 56.7 11.8
2002-01-16 05:34:13 51°21.583 3°3.799 61.2 13.2 57.3 11.9
2002-01-16 05:34:18 51°21.593 3°3.824 61.3 13.1 57.6 11.8
2002-01-16 05:34:23 51°21.603 3°3.848 61.3 13.1 57.7 11.8
2002-01-16 05:34:28 51°21.613 3°3.873 61.5 13.2 57.5 11.8
2002-01-16 05:34:33 51°21.623 3°3.898 61 13.2 57.1 11.9
2002-01-16 05:34:38 51°21.633 3°3.922 60 13.2 56.9 11.8
2002-01-16 05:34:43 51°21.643 3°3.947 61.2 13.2 57.2 11.9
2002-01-16 05:34:48 51°21.654 3°3.97 59.3 13.2 55.5 11.9
2002-01-16 05:34:53 51°21.662 3°3.996 61.8 13.2 57.6 11.9
2002-01-16 05:34:58 51°21.674 3°4.019 58.8 13.2 55.2 11.9
2002-01-16 05:35:03 51°21.683 3°4.045 62 13.2 57.9 11.9
2002-01-16 05:35:07 51°21.691 3°4.064 61.7 13.2 57.4 11.9
2002-01-16 05:35:13 51°21.701 3°4.095 64 13.1 59.7 12
2002-01-16 05:35:18 51°21.712 3°4.119 62.2 13.1 58.9 12
2002-01-16 05:35:23 51°21.72 3°4.145 64.8 13.2 60.9 12
2002-01-16 05:35:28 51°21.729 3°4.17 64.3 13.2 60.1 12
2002-01-16 05:35:33 51°21.737 3°4.197 66.3 13.2 62.2 12.1
2002-01-16 05:35:38 51°21.747 3°4.222 65 13.1 61.1 12.1
2002-01-16 05:35:43 51°21.754 3°4.248 66.8 13.2 62.3 12.1
2002-01-16 05:35:48 51°21.764 3°4.273 65.7 13.2 61.2 12
2002-01-16 05:35:53 51°21.771 3°4.3 67.3 13.2 63.5 12.1
2002-01-16 05:35:58 51°21.782 3°4.324 63.3 13.1 61.2 12
2002-01-16 05:36:03 51°21.789 3°4.351 65.5 13.2 61.8 12
2002-01-16 05:36:08 51°21.798 3°4.376 65.2 13.2 60.9 12.1
2002-01-16 05:36:13 51°21.806 3°4.402 66.8 13.1 62.4 12.2
2002-01-16 05:36:18 51°21.815 3°4.428 65.8 13.1 62.9 12.1
2002-01-16 05:36:23 51°21.823 3°4.454 66.7 13.1 62.6 12.1
2002-01-16 05:36:28 51°21.831 3°4.48 66.3 13.1 62.7 12.2
2002-01-16 05:36:33 51°21.84 3°4.505 66.5 13.1 62.5 12.1
2002-01-16 05:36:38 51°21.847 3°4.532 68 13.1 63.6 12.1
2002-01-16 05:36:43 51°21.858 3°4.557 63.3 13.2 60.5 12.1
2002-01-16 05:36:48 51°21.865 3°4.583 66.7 13.2 62.5 12.1
2002-01-16 05:36:53 51°21.875 3°4.608 63.8 13.2 60.5 12.1
2002-01-16 05:36:58 51°21.884 3°4.634 63.8 13.2 60.3 12.2
2002-01-16 05:37:03 51°21.893 3°4.659 64.7 13.2 60.4 12.2
2002-01-16 05:37:08 51°21.901 3°4.685 65.2 13.2 60.8 12.3
2002-01-16 05:37:13 51°21.911 3°4.71 63.5 13.3 60 12
2002-01-16 05:37:18 51°21.919 3°4.736 65.2 13.2 61.3 12.3
2002-01-16 05:37:23 51°21.929 3°4.761 63.8 13.2 60.2 12.3
2002-01-16 05:37:28 51°21.938 3°4.787 63.5 13.3 59.9 12.3
2002-01-16 05:37:33 51°21.948 3°4.812 64.2 13.2 59.8 12.4
2002-01-16 05:37:38 51°21.956 3°4.838 65.3 13.2 61.4 12.4
2002-01-16 05:37:43 51°21.966 3°4.863 64.7 13.2 60.2 12.4
2002-01-16 05:37:48 51°21.973 3°4.89 66.5 13.2 62.4 12.4
2002-01-16 05:37:53 51°21.983 3°4.914 63.7 13.2 60.2 12.4
2002-01-16 05:37:58 51°21.991 3°4.941 66.7 13.1 62.7 12.4
2002-01-16 05:38:03 51°22.001 3°4.966 65 13.1 61.2 12.4
2002-01-16 05:38:08 51°22.008 3°4.993 66.8 13.2 62.7 12.5
2002-01-16 05:38:13 51°22.016 3°5.019 69 13.1 63.9 12.5
2002-01-16 05:38:18 51°22.023 3°5.046 70.2 13.2 65.5 12.5
2002-01-16 05:38:23 51°22.032 3°5.072 68 13.2 64 12.5
2002-01-16 05:38:28 51°22.038 3°5.099 70.3 13.2 66 12.5
2002-01-16 05:38:33 51°22.046 3°5.125 70 13.2 65.5 12.6
2002-01-16 05:38:38 51°22.053 3°5.153 70.3 13.2 67.2 12.6
2002-01-16 05:38:43 51°22.06 3°5.18 72.2 13.2 67.6 12.5
2002-01-16 05:38:48 51°22.067 3°5.207 71.5 13.2 68.3 12.5
2002-01-16 05:38:53 51°22.073 3°5.234 72.5 13.1 68.6 12.5
2002-01-16 05:38:58 51°22.08 3°5.262 73.7 13.2 69.8 12.5
2002-01-16 05:39:03 51°22.085 3°5.289 74.3 13.2 70.5 12.6
2002-01-16 05:39:07 51°22.089 3°5.312 76.5 13.1 72.5 12.6
2002-01-16 05:39:13 51°22.096 3°5.345 77 13.2 73.3 12.6
2002-01-16 05:39:18 51°22.101 3°5.373 77.2 13.2 73.4 12.7
2002-01-16 05:39:23 51°22.106 3°5.401 76.7 13.2 73.5 12.6
2002-01-16 05:39:28 51°22.112 3°5.43 76.2 13.2 73.1 12.6
2002-01-16 05:39:33 51°22.116 3°5.458 77.8 13.2 74.1 12.6
2002-01-16 05:39:38 51°22.122 3°5.486 76.2 13.2 72.3 12.7
2002-01-16 05:39:43 51°22.126 3°5.514 78 13.1 74.1 12.7
2002-01-16 05:39:48 51°22.133 3°5.541 76.5 13.1 72.1 12.7
2002-01-16 05:39:53 51°22.137 3°5.57 76.2 13.2 73.6 12.7
2002-01-16 05:39:58 51°22.145 3°5.597 72.7 13.2 70.5 12.6
2002-01-16 05:40:03 51°22.149 3°5.625 76.5 13.1 73 12.7
2002-01-16 05:40:08 51°22.157 3°5.652 73.2 13.1 70.3 12.7
2002-01-16 05:40:13 51°22.161 3°5.68 75.3 13.1 72 12.8
2002-01-16 05:40:18 51°22.168 3°5.707 72.7 13.1 69.2 12.8
2002-01-16 05:40:23 51°22.173 3°5.734 74.2 13 70.6 12.8
2002-01-16 05:40:28 51°22.179 3°5.762 74.8 13 71.6 12.8
2002-01-16 05:40:33 51°22.184 3°5.79 77.2 13 73.3 12.8
2002-01-16 05:40:38 51°22.188 3°5.818 79.7 12.9 76.2 12.9
2002-01-16 05:40:43 51°22.192 3°5.846 79.8 13 76.3 12.9
2002-01-16 05:40:48 51°22.196 3°5.874 80.8 13 77.9 12.9
2002-01-16 05:40:53 51°22.198 3°5.902 82.3 12.9 79.5 13
2002-01-16 05:40:58 51°22.204 3°5.93 79.7 13 76.7 12.9
2002-01-16 05:41:03 51°22.206 3°5.959 82.2 13 79.5 12.9
2002-01-16 05:41:08 51°22.212 3°5.986 79.7 13 77.5 12.9
2002-01-16 05:41:13 51°22.213 3°6.015 82.7 13 79.7 12.9
2002-01-16 05:41:17 51°22.218 3°6.037 80.2 12.9 76.6 12.8
2002-01-16 05:41:23 51°22.221 3°6.071 82 12.9 79 12.8
2002-01-16 05:41:28 51°22.226 3°6.099 80.3 13 76.6 12.9
2002-01-16 05:41:33 51°22.228 3°6.128 82.7 13 79.4 12.9
2002-01-16 05:41:38 51°22.234 3°6.155 79.8 13 76.6 12.9
2002-01-16 05:41:43 51°22.236 3°6.184 81.2 13 78.8 12.9
2002-01-16 05:41:48 51°22.241 3°6.211 79.8 13 76.4 12.9
2002-01-16 05:41:53 51°22.244 3°6.24 81.5 13 78.6 12.9
2002-01-16 05:41:58 51°22.249 3°6.268 79 13.1 76.4 12.9
2002-01-16 05:42:03 51°22.252 3°6.297 80.5 13.1 77.4 13
2002-01-16 05:42:08 51°22.255 3°6.325 83.3 13.1 80 13
2002-01-16 05:42:13 51°22.26 3°6.354 80.5 13.2 78.3 13
2002-01-16 05:42:18 51°22.263 3°6.383 80.8 13.2 78.7 13
2002-01-16 05:42:23 51°22.268 3°6.411 80.3 13.2 77.4 12.9
2002-01-16 05:42:28 51°22.269 3°6.44 84 13.1 81.3 12.9
2002-01-16 05:42:33 51°22.274 3°6.469 82.7 13.2 79.5 12.9
2002-01-16 05:42:38 51°22.274 3°6.498 85.5 13.1 83.2 13
2002-01-16 05:42:43 51°22.278 3°6.526 85 13.1 81.8 12.9
2002-01-16 05:42:48 51°22.279 3°6.555 85.7 13.1 83.1 13
2002-01-16 05:42:53 51°22.281 3°6.584 86.5 13.1 83.5 13
2002-01-16 05:42:58 51°22.284 3°6.613 84.7 13.1 82.3 13
2002-01-16 05:43:03 51°22.286 3°6.642 86.5 13.1 83.6 13
2002-01-16 05:43:08 51°22.288 3°6.671 86.3 13.1 83.4 13
2002-01-16 05:43:13 51°22.289 3°6.699 87.2 13 84.9 13
2002-01-16 05:43:18 51°22.29 3°6.728 88.3 13 85.1 13.1
2002-01-16 05:43:23 51°22.293 3°6.757 86.3 13 83.9 13.1
2002-01-16 05:43:28 51°22.294 3°6.786 87 13 84.5 13.1
2002-01-16 05:43:33 51°22.297 3°6.815 86.8 13.1 83.6 13
2002-01-16 05:43:38 51°22.299 3°6.843 86.3 13.1 83.6 13.1
2002-01-16 05:43:43 51°22.3 3°6.872 86.2 13.1 84 13.1
2002-01-16 05:43:48 51°22.304 3°6.901 85.3 13.1 82.6 13.2
2002-01-16 05:43:53 51°22.306 3°6.93 84.8 13 82.8 13.1
2002-01-16 05:43:58 51°22.308 3°6.958 86.2 13 83.5 13.1
2002-01-16 05:44:03 51°22.311 3°6.987 83.7 13 81.7 13
2002-01-16 05:44:08 51°22.313 3°7.016 84.2 13.1 82.1 13
2002-01-16 05:44:13 51°22.316 3°7.044 84.3 13 81.2 12.9
2002-01-16 05:44:18 51°22.318 3°7.072 84 12.9 81.3 12.9
2002-01-16 05:44:23 51°22.322 3°7.101 84.7 12.9 81 12.8
2002-01-16 05:44:28 51°22.325 3°7.129 83.2 13 81.7 12.8
2002-01-16 05:44:33 51°22.326 3°7.158 85.3 13 81.9 12.9
2002-01-16 05:44:37 51°22.328 3°7.181 85 13 82.4 12.9
2002-01-16 05:44:43 51°22.331 3°7.215 85.3 13.1 82.3 13
2002-01-16 05:44:48 51°22.334 3°7.244 86.2 12.9 82.8 13
2002-01-16 05:44:53 51°22.336 3°7.272 85.3 12.9 82.5 13
2002-01-16 05:44:58 51°22.338 3°7.301 85.2 13 82.3 13
2002-01-16 05:45:03 51°22.341 3°7.329 84.7 13 82.1 13
2002-01-16 05:45:08 51°22.343 3°7.358 85 13 82.5 13
2002-01-16 05:45:13 51°22.345 3°7.387 85.5 13 82.8 13
2002-01-16 05:45:18 51°22.347 3°7.415 85.8 13 82.9 13.1
2002-01-16 05:45:23 51°22.35 3°7.444 86 13 83 13.1
2002-01-16 05:45:28 51°22.353 3°7.472 83.5 13 81.1 13
2002-01-16 05:45:33 51°22.356 3°7.501 84 13 80.9 13
2002-01-16 05:45:38 51°22.358 3°7.529 84.7 12.9 81.5 13
2002-01-16 05:45:43 51°22.36 3°7.558 84.8 12.9 81.9 13
2002-01-16 05:45:48 51°22.363 3°7.586 84.2 13.1 81.6 13
2002-01-16 05:45:53 51°22.366 3°7.615 84.3 13.1 81.6 13.1
2002-01-16 05:45:58 51°22.368 3°7.643 86.2 12.9 83.2 13.1
2002-01-16 05:46:03 51°22.371 3°7.672 84.8 13 82.6 13
2002-01-16 05:46:08 51°22.373 3°7.701 84.2 13.2 81.2 13.1
2002-01-16 05:46:13 51°22.375 3°7.73 85.5 13.1 82.4 13.1
2002-01-16 05:46:18 51°22.378 3°7.758 84.8 13 81.9 13.1
2002-01-16 05:46:23 51°22.38 3°7.787 85.5 13 82.8 13.1
2002-01-16 05:46:28 51°22.383 3°7.815 83.7 13 81.2 13.1
2002-01-16 05:46:33 51°22.386 3°7.844 83.8 13 80.6 13.1
2002-01-16 05:46:38 51°22.388 3°7.872 84.5 12.9 82.3 13.1
2002-01-16 05:46:43 51°22.392 3°7.9 84.5 12.9 81.4 13.1
2002-01-16 05:46:48 51°22.394 3°7.929 84.5 12.9 81.6 13.2
2002-01-16 05:46:53 51°22.397 3°7.957 85 12.9 81.6 13.1
2002-01-16 05:46:58 51°22.398 3°7.986 86.7 12.9 83.5 13.2
2002-01-16 05:47:03 51°22.4 3°8.014 87.2 12.9 83.4 13.2
2002-01-16 05:47:07 51°22.4 3°8.037 88.5 12.8 85.6 13.2
2002-01-16 05:47:13 51°22.401 3°8.07 90.2 12.7 86.7 13.2
2002-01-16 05:47:18 51°22.401 3°8.099 90.7 12.8 88.4 13.1
2002-01-16 05:47:23 51°22.403 3°8.127 90.7 12.8 87.8 13.2
2002-01-16 05:47:28 51°22.402 3°8.155 92.8 12.7 90.5 13.2
2002-01-16 05:47:33 51°22.403 3°8.184 90.7 12.8 88.7 13.2
2002-01-16 05:47:38 51°22.403 3°8.212 90.7 12.9 88.7 13.2
2002-01-16 05:47:43 51°22.404 3°8.241 91 12.9 88.7 13.2
2002-01-16 05:47:48 51°22.404 3°8.269 91.3 12.9 88.9 13.2
2002-01-16 05:47:53 51°22.404 3°8.298 92.2 12.8 89.5 13.2
2002-01-16 05:47:58 51°22.405 3°8.326 91 12.9 88.6 13.1
2002-01-16 05:48:03 51°22.406 3°8.355 89.7 13 87.3 13.1
2002-01-16 05:48:08 51°22.406 3°8.384 90.3 12.9 88.1 13.1
2002-01-16 05:48:13 51°22.408 3°8.412 90.3 12.9 87.2 13.2
2002-01-16 05:48:18 51°22.407 3°8.441 91 12.9 88.8 13.3
2002-01-16 05:48:23 51°22.409 3°8.47 90 12.9 87 13.3
2002-01-16 05:48:28 51°22.408 3°8.498 90.7 13 88.3 13.2
2002-01-16 05:48:33 51°22.41 3°8.527 90.5 12.9 87.4 13.2
2002-01-16 05:48:38 51°22.41 3°8.556 90.7 12.9 88.7 13.2
2002-01-16 05:48:43 51°22.411 3°8.584 89.7 12.9 87.2 13.2
2002-01-16 05:48:47 51°22.411 3°8.607 91 12.9 88.5 13.1
2002-01-16 05:48:53 51°22.412 3°8.642 92.2 12.9 89.2 13.2
2002-01-16 05:48:58 51°22.411 3°8.67 93.2 12.9 90.6 13
2002-01-16 05:49:03 51°22.411 3°8.699 93.5 12.9 90.7 13.2
2002-01-16 05:49:07 51°22.41 3°8.722 93.7 12.9 91.7 13.4
2002-01-16 05:49:13 51°22.41 3°8.756 93.5 12.9 90.4 13.4
2002-01-16 05:49:18 51°22.41 3°8.784 93.8 12.8 91.5 13.4
2002-01-16 05:49:23 51°22.41 3°8.813 93 12.8 90.5 13.4
2002-01-16 05:49:28 51°22.408 3°8.841 94.7 12.7 92.4 13.5